createdAt,value
2022-12-23T00:00:18.702Z,915.12
2022-12-23T00:01:18.712Z,915.08
2022-12-23T00:02:18.811Z,914.76
2022-12-23T00:03:18.804Z,914.59
2022-12-23T00:04:18.746Z,914.56
2022-12-23T00:05:18.636Z,914.28
2022-12-23T00:06:18.635Z,914.38
2022-12-23T00:07:18.621Z,913.92
2022-12-23T00:08:18.612Z,914.20
2022-12-23T00:09:18.599Z,913.99
2022-12-23T00:10:18.596Z,913.42
2022-12-23T00:11:18.584Z,913.03
2022-12-23T00:12:18.580Z,913.49
2022-12-23T00:13:18.572Z,913.71
2022-12-23T00:14:21.973Z,914.39
2022-12-23T00:15:18.547Z,915.10
2022-12-23T00:16:18.629Z,915.68
2022-12-23T00:17:22.743Z,916.25
2022-12-23T00:18:18.532Z,915.70
2022-12-23T00:19:18.525Z,915.87
2022-12-23T00:20:18.476Z,916.31
2022-12-23T00:21:18.489Z,917.00
2022-12-23T00:22:18.447Z,917.41
2022-12-23T00:23:18.455Z,917.45
2022-12-23T00:24:18.458Z,917.56
2022-12-23T00:25:18.423Z,917.06
2022-12-23T00:26:18.404Z,917.06
2022-12-23T00:27:18.403Z,916.99
2022-12-23T00:28:18.426Z,916.70
2022-12-23T00:29:18.396Z,916.76
2022-12-23T00:30:18.366Z,916.43
2022-12-23T00:31:18.427Z,916.96
2022-12-23T00:32:18.502Z,916.85
2022-12-23T00:33:18.351Z,917.22
2022-12-23T00:34:18.313Z,917.36
2022-12-23T00:35:18.361Z,917.44
2022-12-23T00:36:18.321Z,918.21
2022-12-23T00:37:18.284Z,917.85
2022-12-23T00:38:18.292Z,918.01
2022-12-23T00:39:18.299Z,918.62
2022-12-23T00:40:18.265Z,919.93
2022-12-23T00:41:18.264Z,919.87
2022-12-23T00:42:18.244Z,920.36
2022-12-23T00:43:18.259Z,920.30
2022-12-23T00:44:18.205Z,919.91
2022-12-23T00:45:18.213Z,919.67
2022-12-23T00:46:18.298Z,919.81
2022-12-23T00:47:18.176Z,919.99
2022-12-23T00:48:18.174Z,919.79
2022-12-23T00:49:18.165Z,919.25
2022-12-23T00:50:18.135Z,919.67
2022-12-23T00:51:18.126Z,919.65
2022-12-23T00:52:18.143Z,919.04
2022-12-23T00:53:18.104Z,919.09
2022-12-23T00:54:18.126Z,919.22
2022-12-23T00:55:18.113Z,919.28
2022-12-23T00:56:18.075Z,918.89
2022-12-23T00:57:18.054Z,918.05
2022-12-23T00:58:18.056Z,917.31
2022-12-23T00:59:18.104Z,917.12
2022-12-23T01:00:18.030Z,916.66
2022-12-23T01:01:18.086Z,916.92
2022-12-23T01:02:18.126Z,917.47
2022-12-23T01:03:18.075Z,917.98
2022-12-23T01:04:17.997Z,918.56
2022-12-23T01:05:17.999Z,918.45
2022-12-23T01:06:17.967Z,917.57
2022-12-23T01:07:17.966Z,917.20
2022-12-23T01:08:17.936Z,916.77
2022-12-23T01:09:17.972Z,916.77
2022-12-23T01:10:17.930Z,917.27
2022-12-23T01:11:17.911Z,917.12
2022-12-23T01:12:17.899Z,917.14
2022-12-23T01:13:17.917Z,917.53
2022-12-23T01:14:17.903Z,918.56
2022-12-23T01:15:17.869Z,919.08
2022-12-23T01:16:18.140Z,920.06
2022-12-23T01:17:17.977Z,920.58
2022-12-23T01:18:17.832Z,920.53
2022-12-23T01:19:17.836Z,920.29
2022-12-23T01:20:17.809Z,919.93
2022-12-23T01:21:17.790Z,919.41
2022-12-23T01:22:17.779Z,919.45
2022-12-23T01:23:17.793Z,919.38
2022-12-23T01:24:17.768Z,919.07
2022-12-23T01:25:17.739Z,919.00
2022-12-23T01:26:17.739Z,918.61
2022-12-23T01:27:18.013Z,918.35
2022-12-23T01:28:17.731Z,918.98
2022-12-23T01:29:17.745Z,918.69
2022-12-23T01:30:17.700Z,918.64
2022-12-23T01:31:17.715Z,918.88
2022-12-23T01:32:17.737Z,918.20
2022-12-23T01:33:17.683Z,918.42
2022-12-23T01:34:17.694Z,918.31
2022-12-23T01:35:17.652Z,918.07
2022-12-23T01:36:17.641Z,917.52
2022-12-23T01:37:17.631Z,917.21
2022-12-23T01:38:17.610Z,917.36
2022-12-23T01:39:17.612Z,917.07
2022-12-23T01:40:17.599Z,917.02
2022-12-23T01:41:17.590Z,917.46
2022-12-23T01:42:17.574Z,917.57
2022-12-23T01:43:17.571Z,918.08
2022-12-23T01:44:17.570Z,918.55
2022-12-23T01:45:17.526Z,919.31
2022-12-23T01:46:17.594Z,919.29
2022-12-23T01:47:17.585Z,918.98
2022-12-23T01:48:17.501Z,919.21
2022-12-23T01:49:17.504Z,918.70
2022-12-23T01:50:17.498Z,918.12
2022-12-23T01:51:17.501Z,918.54
2022-12-23T01:52:17.463Z,919.16
2022-12-23T01:53:17.468Z,919.36
2022-12-23T01:54:17.453Z,919.32
2022-12-23T01:55:17.454Z,919.34
2022-12-23T01:56:17.407Z,918.82
2022-12-23T01:57:17.404Z,918.48
2022-12-23T01:58:17.392Z,918.25
2022-12-23T01:59:17.400Z,917.88
2022-12-23T02:00:17.362Z,918.25
2022-12-23T02:01:17.389Z,919.11
2022-12-23T02:02:17.511Z,920.08
2022-12-23T02:03:17.472Z,920.93
2022-12-23T02:04:17.355Z,921.08
2022-12-23T02:05:17.326Z,921.13
2022-12-23T02:06:17.305Z,921.61
2022-12-23T02:07:17.335Z,921.71
2022-12-23T02:08:17.297Z,922.05
2022-12-23T02:09:17.282Z,922.32
2022-12-23T02:10:17.259Z,921.52
2022-12-23T02:11:17.245Z,921.34
2022-12-23T02:12:17.257Z,921.45
2022-12-23T02:13:17.226Z,921.56
2022-12-23T02:14:17.242Z,921.18
2022-12-23T02:15:17.205Z,921.08
2022-12-23T02:16:17.266Z,921.29
2022-12-23T02:17:17.309Z,921.57
2022-12-23T02:18:17.205Z,921.73
2022-12-23T02:19:17.187Z,921.30
2022-12-23T02:20:17.158Z,920.60
2022-12-23T02:21:17.166Z,920.38
2022-12-23T02:22:17.128Z,920.62
2022-12-23T02:23:17.131Z,920.41
2022-12-23T02:24:17.109Z,920.78
2022-12-23T02:25:17.114Z,921.20
2022-12-23T02:26:17.091Z,921.54
2022-12-23T02:27:17.115Z,921.47
2022-12-23T02:28:17.125Z,921.46
2022-12-23T02:29:17.075Z,921.82
2022-12-23T02:30:17.040Z,922.23
2022-12-23T02:31:17.085Z,922.21
2022-12-23T02:32:17.048Z,922.10
2022-12-23T02:33:17.009Z,922.33
2022-12-23T02:34:17.001Z,922.93
2022-12-23T02:35:17.013Z,923.17
2022-12-23T02:36:16.974Z,923.64
2022-12-23T02:37:17.020Z,923.73
2022-12-23T02:38:16.994Z,923.60
2022-12-23T02:39:16.956Z,923.69
2022-12-23T02:40:16.944Z,923.73
2022-12-23T02:41:16.907Z,923.51
2022-12-23T02:42:16.909Z,923.32
2022-12-23T02:43:20.807Z,923.32
2022-12-23T02:44:16.928Z,923.78
2022-12-23T02:45:16.867Z,924.15
2022-12-23T02:46:16.915Z,924.23
2022-12-23T02:47:16.855Z,923.77
2022-12-23T02:48:16.854Z,923.86
2022-12-23T02:49:16.839Z,923.48
2022-12-23T02:50:16.827Z,923.69
2022-12-23T02:51:16.805Z,923.96
2022-12-23T02:52:16.788Z,924.88
2022-12-23T02:53:16.788Z,925.10
2022-12-23T02:54:16.931Z,926.13
2022-12-23T02:55:16.780Z,927.26
2022-12-23T02:56:16.759Z,928.16
2022-12-23T02:57:16.753Z,929.84
2022-12-23T02:58:16.755Z,931.29
2022-12-23T02:59:16.736Z,931.92
2022-12-23T03:00:16.721Z,932.90
2022-12-23T03:01:16.705Z,934.52
2022-12-23T03:02:16.884Z,935.12
2022-12-23T03:03:16.854Z,935.31
2022-12-23T03:04:16.679Z,935.18
2022-12-23T03:05:16.648Z,935.18
2022-12-23T03:06:16.649Z,934.54
2022-12-23T03:07:18.647Z,933.05
2022-12-23T03:08:16.864Z,931.74
2022-12-23T03:09:16.621Z,928.75
2022-12-23T03:10:16.599Z,928.00
2022-12-23T03:11:16.593Z,926.83
2022-12-23T03:12:16.582Z,925.12
2022-12-23T03:13:16.569Z,924.10
2022-12-23T03:14:16.583Z,920.71
2022-12-23T03:15:16.560Z,917.02
2022-12-23T03:16:16.571Z,913.60
2022-12-23T03:17:16.547Z,909.93
2022-12-23T03:18:16.523Z,906.95
2022-12-23T03:19:16.490Z,904.59
2022-12-23T03:20:16.501Z,902.40
2022-12-23T03:21:16.485Z,898.63
2022-12-23T03:22:16.463Z,891.74
2022-12-23T03:23:16.439Z,888.45
2022-12-23T03:24:16.440Z,885.78
2022-12-23T03:25:16.432Z,881.71
2022-12-23T03:26:16.406Z,879.58
2022-12-23T03:27:23.668Z,877.41
2022-12-23T03:28:16.471Z,873.66
2022-12-23T03:29:16.399Z,873.46
2022-12-23T03:30:16.375Z,870.98
2022-12-23T03:31:16.598Z,870.06
2022-12-23T03:32:16.352Z,869.62
2022-12-23T03:33:16.340Z,869.99
2022-12-23T03:34:16.379Z,870.26
2022-12-23T03:35:16.325Z,870.92
2022-12-23T03:36:16.291Z,871.48
2022-12-23T03:37:16.318Z,872.19
2022-12-23T03:38:16.309Z,873.17
2022-12-23T03:39:16.290Z,874.17
2022-12-23T03:40:16.260Z,875.28
2022-12-23T03:41:16.271Z,875.81
2022-12-23T03:42:16.269Z,875.52
2022-12-23T03:43:16.239Z,876.16
2022-12-23T03:44:16.222Z,876.45
2022-12-23T03:46:17.526Z,877.72
2022-12-23T03:47:16.209Z,878.05
2022-12-23T03:48:16.182Z,878.51
2022-12-23T03:49:16.193Z,878.85
2022-12-23T03:50:16.174Z,879.09
2022-12-23T03:51:16.152Z,879.13
2022-12-23T03:52:21.044Z,879.23
2022-12-23T03:53:17.109Z,879.49
2022-12-23T03:54:16.106Z,879.88
2022-12-23T03:55:16.134Z,880.00
2022-12-23T03:56:16.094Z,879.68
2022-12-23T03:57:16.082Z,879.00
2022-12-23T03:58:16.089Z,878.65
2022-12-23T03:59:16.331Z,878.39
2022-12-23T04:00:16.031Z,879.27
2022-12-23T04:01:17.934Z,879.59
2022-12-23T04:02:16.121Z,879.66
2022-12-23T04:03:16.022Z,879.65
2022-12-23T04:04:16.075Z,879.94
2022-12-23T04:05:16.001Z,880.93
2022-12-23T04:06:15.995Z,880.45
2022-12-23T04:07:15.963Z,879.77
2022-12-23T04:08:15.952Z,879.32
2022-12-23T04:09:21.698Z,879.15
2022-12-23T04:10:17.001Z,879.37
2022-12-23T04:11:15.925Z,879.31
2022-12-23T04:12:15.896Z,878.87
2022-12-23T04:13:15.905Z,878.61
2022-12-23T04:14:15.906Z,879.36
2022-12-23T04:15:15.885Z,878.52
2022-12-23T04:16:15.932Z,876.92
2022-12-23T04:17:15.852Z,877.00
2022-12-23T04:18:15.833Z,877.78
2022-12-23T04:19:15.853Z,878.60
2022-12-23T04:20:16.059Z,879.38
2022-12-23T04:21:15.830Z,880.32
2022-12-23T04:22:15.786Z,881.31
2022-12-23T04:23:15.809Z,882.09
2022-12-23T04:24:15.790Z,882.68
2022-12-23T04:25:15.785Z,882.74
2022-12-23T04:26:15.746Z,883.64
2022-12-23T04:27:15.752Z,884.41
2022-12-23T04:28:15.739Z,885.44
2022-12-23T04:29:15.718Z,886.64
2022-12-23T04:30:15.727Z,887.91
2022-12-23T04:31:15.710Z,888.70
2022-12-23T04:32:15.697Z,889.04
2022-12-23T04:33:15.666Z,890.16
2022-12-23T04:34:15.658Z,891.17
2022-12-23T04:35:15.669Z,892.20
2022-12-23T04:36:15.640Z,893.23
2022-12-23T04:37:15.632Z,893.79
2022-12-23T04:38:15.613Z,894.43
2022-12-23T04:39:15.607Z,894.53
2022-12-23T04:40:15.602Z,893.78
2022-12-23T04:41:15.610Z,892.87
2022-12-23T04:42:15.576Z,892.77
2022-12-23T04:43:15.568Z,893.47
2022-12-23T04:44:15.599Z,893.54
2022-12-23T04:45:15.789Z,894.19
2022-12-23T04:46:15.562Z,895.30
2022-12-23T04:47:15.545Z,896.77
2022-12-23T04:48:15.521Z,897.11
2022-12-23T04:49:15.510Z,897.55
2022-12-23T04:50:15.489Z,897.86
2022-12-23T04:51:15.520Z,898.07
2022-12-23T04:52:15.468Z,897.61
2022-12-23T04:53:15.460Z,897.35
2022-12-23T04:54:15.449Z,897.73
2022-12-23T04:55:15.433Z,897.38
2022-12-23T04:56:15.446Z,897.86
2022-12-23T04:57:15.415Z,898.27
2022-12-23T04:58:15.401Z,898.00
2022-12-23T04:59:15.422Z,898.04
2022-12-23T05:00:15.372Z,898.47
2022-12-23T05:01:15.494Z,899.10
2022-12-23T05:02:15.535Z,898.84
2022-12-23T05:03:15.438Z,898.37
2022-12-23T05:04:15.448Z,898.48
2022-12-23T05:05:15.325Z,898.94
2022-12-23T05:06:15.310Z,898.79
2022-12-23T05:07:15.305Z,899.22
2022-12-23T05:08:15.289Z,899.33
2022-12-23T05:09:15.284Z,898.75
2022-12-23T05:10:15.262Z,898.39
2022-12-23T05:11:15.280Z,897.96
2022-12-23T05:12:15.246Z,897.78
2022-12-23T05:13:15.249Z,897.65
2022-12-23T05:14:15.231Z,896.12
2022-12-23T05:15:15.223Z,895.96
2022-12-23T05:16:15.240Z,894.95
2022-12-23T05:17:15.184Z,894.19
2022-12-23T05:18:15.197Z,893.53
2022-12-23T05:19:15.411Z,893.33
2022-12-23T05:20:15.155Z,893.61
2022-12-23T05:21:15.152Z,894.08
2022-12-23T05:22:15.153Z,894.52
2022-12-23T05:23:15.121Z,895.20
2022-12-23T05:24:15.141Z,895.26
2022-12-23T05:25:15.115Z,894.83
2022-12-23T05:26:15.113Z,894.66
2022-12-23T05:27:15.086Z,895.39
2022-12-23T05:28:15.079Z,895.69
2022-12-23T05:29:15.072Z,895.91
2022-12-23T05:30:15.042Z,896.87
2022-12-23T05:31:15.080Z,897.82
2022-12-23T05:32:15.024Z,898.25
2022-12-23T05:33:15.054Z,898.64
2022-12-23T05:34:22.350Z,899.29
2022-12-23T05:35:14.979Z,899.51
2022-12-23T05:36:14.993Z,900.52
2022-12-23T05:37:14.960Z,901.60
2022-12-23T05:38:14.956Z,902.47
2022-12-23T05:39:14.947Z,902.91
2022-12-23T05:40:18.482Z,903.30
2022-12-23T05:41:15.972Z,904.10
2022-12-23T05:42:14.917Z,903.55
2022-12-23T05:43:14.905Z,902.69
2022-12-23T05:44:14.902Z,902.25
2022-12-23T05:45:14.872Z,902.08
2022-12-23T05:46:14.942Z,902.84
2022-12-23T05:47:14.865Z,903.61
2022-12-23T05:48:14.845Z,904.31
2022-12-23T05:49:14.839Z,905.08
2022-12-23T05:50:14.834Z,905.59
2022-12-23T05:51:14.827Z,905.29
2022-12-23T05:52:14.800Z,904.77
2022-12-23T05:53:14.804Z,903.94
2022-12-23T05:54:14.828Z,902.35
2022-12-23T05:55:14.782Z,901.03
2022-12-23T05:56:14.797Z,900.30
2022-12-23T05:57:14.751Z,899.89
2022-12-23T05:58:14.750Z,899.00
2022-12-23T05:59:14.739Z,897.82
2022-12-23T06:00:14.704Z,897.54
2022-12-23T06:01:14.741Z,896.23
2022-12-23T06:02:14.922Z,894.96
2022-12-23T06:03:14.761Z,894.10
2022-12-23T06:04:14.780Z,893.14
2022-12-23T06:05:14.682Z,891.92
2022-12-23T06:06:14.662Z,891.53
2022-12-23T06:07:14.622Z,891.14
2022-12-23T06:08:14.632Z,891.01
2022-12-23T06:09:14.619Z,890.57
2022-12-23T06:10:14.611Z,890.14
2022-12-23T06:11:14.591Z,889.80
2022-12-23T06:12:14.594Z,888.64
2022-12-23T06:13:14.565Z,888.28
2022-12-23T06:14:14.556Z,888.48
2022-12-23T06:15:14.565Z,888.83
2022-12-23T06:16:14.546Z,888.95
2022-12-23T06:17:14.516Z,888.39
2022-12-23T06:18:14.518Z,887.85
2022-12-23T06:19:14.493Z,887.65
2022-12-23T06:20:20.389Z,887.68
2022-12-23T06:21:15.493Z,888.05
2022-12-23T06:22:14.466Z,888.76
2022-12-23T06:23:14.443Z,889.18
2022-12-23T06:24:14.445Z,889.31
2022-12-23T06:25:14.426Z,889.58
2022-12-23T06:26:14.439Z,889.96
2022-12-23T06:27:14.406Z,890.69
2022-12-23T06:28:14.406Z,890.74
2022-12-23T06:29:14.396Z,890.68
2022-12-23T06:30:14.390Z,890.87
2022-12-23T06:31:14.397Z,890.32
2022-12-23T06:32:14.513Z,889.26
2022-12-23T06:33:14.337Z,888.69
2022-12-23T06:34:14.327Z,888.23
2022-12-23T06:35:14.329Z,888.44
2022-12-23T06:36:14.589Z,889.12
2022-12-23T06:37:14.317Z,888.37
2022-12-23T06:38:14.299Z,888.23
2022-12-23T06:39:14.297Z,887.93
2022-12-23T06:40:14.259Z,888.09
2022-12-23T06:41:14.251Z,888.17
2022-12-23T06:42:14.258Z,888.47
2022-12-23T06:43:14.239Z,888.25
2022-12-23T06:44:14.208Z,888.15
2022-12-23T06:45:14.232Z,887.94
2022-12-23T06:46:14.253Z,887.82
2022-12-23T06:47:14.200Z,888.40
2022-12-23T06:48:14.176Z,889.04
2022-12-23T06:49:14.286Z,889.61
2022-12-23T06:50:14.159Z,890.49
2022-12-23T06:51:14.130Z,891.06
2022-12-23T06:52:14.132Z,891.24
2022-12-23T06:53:14.133Z,891.51
2022-12-23T06:54:14.101Z,892.32
2022-12-23T06:55:14.112Z,892.84
2022-12-23T06:56:14.081Z,893.44
2022-12-23T06:57:14.069Z,894.17
2022-12-23T06:58:14.049Z,894.76
2022-12-23T06:59:14.065Z,895.58
2022-12-23T07:00:14.076Z,896.89
2022-12-23T07:01:14.054Z,897.46
2022-12-23T07:02:14.213Z,898.02
2022-12-23T07:03:14.054Z,899.16
2022-12-23T07:04:13.981Z,899.95
2022-12-23T07:05:13.983Z,900.29
2022-12-23T07:06:13.975Z,901.42
2022-12-23T07:07:13.963Z,903.03
2022-12-23T07:08:13.939Z,903.38
2022-12-23T07:09:13.935Z,903.95
2022-12-23T07:10:13.942Z,904.46
2022-12-23T07:11:13.900Z,905.04
2022-12-23T07:12:13.910Z,905.61
2022-12-23T07:13:13.884Z,905.87
2022-12-23T07:14:13.884Z,906.72
2022-12-23T07:15:13.862Z,907.97
2022-12-23T07:16:13.870Z,909.12
2022-12-23T07:17:13.860Z,909.90
2022-12-23T07:18:13.837Z,910.56
2022-12-23T07:19:13.812Z,911.92
2022-12-23T07:20:13.862Z,912.60
2022-12-23T07:21:21.622Z,913.39
2022-12-23T07:22:14.815Z,913.74
2022-12-23T07:23:13.817Z,914.08
2022-12-23T07:24:13.786Z,914.20
2022-12-23T07:25:13.812Z,914.68
2022-12-23T07:26:13.782Z,914.82
2022-12-23T07:27:13.736Z,915.36
2022-12-23T07:28:13.734Z,916.20
2022-12-23T07:29:13.728Z,916.63
2022-12-23T07:30:13.798Z,916.24
2022-12-23T07:31:13.750Z,916.03
2022-12-23T07:32:13.802Z,915.82
2022-12-23T07:33:13.679Z,915.52
2022-12-23T07:34:13.653Z,915.63
2022-12-23T07:35:13.633Z,916.33
2022-12-23T07:36:21.875Z,916.50
2022-12-23T07:37:20.859Z,917.41
2022-12-23T07:38:20.835Z,918.11
2022-12-23T07:39:20.846Z,917.88
2022-12-23T07:40:20.890Z,917.72
2022-12-23T07:41:13.559Z,917.68
2022-12-23T07:42:43.700Z,918.08
2022-12-23T07:43:14.550Z,918.66
2022-12-23T07:44:13.523Z,919.32
2022-12-23T07:45:13.547Z,920.24
2022-12-23T07:46:13.557Z,920.72
2022-12-23T07:47:13.537Z,921.53
2022-12-23T07:48:13.479Z,923.11
2022-12-23T07:49:13.524Z,924.77
2022-12-23T07:50:13.507Z,927.21
2022-12-23T07:51:13.488Z,928.38
2022-12-23T07:52:13.449Z,929.04
2022-12-23T07:53:13.449Z,929.00
2022-12-23T07:54:13.432Z,929.52
2022-12-23T07:55:13.419Z,929.97
2022-12-23T07:56:13.421Z,930.83
2022-12-23T07:57:13.404Z,932.14
2022-12-23T07:58:13.391Z,932.69
2022-12-23T07:59:13.381Z,933.39
2022-12-23T08:00:13.415Z,933.50
2022-12-23T08:01:13.383Z,933.98
2022-12-23T08:02:13.471Z,934.29
2022-12-23T08:03:13.439Z,935.19
2022-12-23T08:04:13.319Z,935.70
2022-12-23T08:05:13.353Z,936.32
2022-12-23T08:06:13.302Z,937.88
2022-12-23T08:07:13.283Z,939.44
2022-12-23T08:08:13.277Z,940.84
2022-12-23T08:09:13.269Z,942.08
2022-12-23T08:10:13.301Z,943.72
2022-12-23T08:11:13.266Z,945.43
2022-12-23T08:12:13.234Z,945.83
2022-12-23T08:13:13.219Z,946.62
2022-12-23T08:14:13.202Z,946.98
2022-12-23T08:15:13.185Z,948.15
2022-12-23T08:16:13.236Z,950.15
2022-12-23T08:17:13.198Z,952.70
2022-12-23T08:18:13.156Z,954.27
2022-12-23T08:19:13.134Z,955.94
2022-12-23T08:20:13.163Z,957.01
2022-12-23T08:21:13.371Z,957.25
2022-12-23T08:22:13.127Z,957.82
2022-12-23T08:23:13.126Z,958.24
2022-12-23T08:24:13.094Z,957.53
2022-12-23T08:25:13.066Z,957.72
2022-12-23T08:26:13.086Z,957.99
2022-12-23T08:27:13.053Z,958.33
2022-12-23T08:28:13.067Z,958.32
2022-12-23T08:29:13.029Z,957.98
2022-12-23T08:30:13.037Z,957.75
2022-12-23T08:31:13.154Z,957.09
2022-12-23T08:32:13.022Z,955.88
2022-12-23T08:33:13.017Z,955.32
2022-12-23T08:34:12.989Z,953.60
2022-12-23T08:35:12.967Z,952.38
2022-12-23T08:36:16.233Z,952.16
2022-12-23T08:37:13.972Z,952.59
2022-12-23T08:38:12.937Z,952.79
2022-12-23T08:39:12.921Z,952.42
2022-12-23T08:40:12.961Z,952.92
2022-12-23T08:41:12.927Z,952.72
2022-12-23T08:42:12.888Z,952.25
2022-12-23T08:43:12.900Z,952.02
2022-12-23T08:44:12.889Z,952.16
2022-12-23T08:45:12.880Z,953.03
2022-12-23T08:46:12.903Z,953.36
2022-12-23T08:47:12.839Z,953.77
2022-12-23T08:48:12.827Z,953.94
2022-12-23T08:49:12.818Z,953.44
2022-12-23T08:50:12.826Z,953.39
2022-12-23T08:51:12.803Z,953.02
2022-12-23T08:52:12.811Z,952.68
2022-12-23T08:53:12.796Z,952.11
2022-12-23T08:54:12.763Z,951.66
2022-12-23T08:55:12.751Z,950.03
2022-12-23T08:56:12.719Z,948.62
2022-12-23T08:57:12.719Z,946.73
2022-12-23T08:58:12.701Z,945.45
2022-12-23T08:59:18.280Z,945.00
2022-12-23T09:00:13.705Z,943.50
2022-12-23T09:01:12.707Z,942.73
2022-12-23T09:02:12.806Z,941.76
2022-12-23T09:03:12.830Z,942.08
2022-12-23T09:04:12.903Z,943.05
2022-12-23T09:05:12.632Z,943.64
2022-12-23T09:06:12.621Z,943.82
2022-12-23T09:07:12.612Z,943.20
2022-12-23T09:08:12.610Z,942.19
2022-12-23T09:09:12.591Z,941.29
2022-12-23T09:10:12.602Z,940.37
2022-12-23T09:11:12.613Z,939.91
2022-12-23T09:12:12.560Z,939.40
2022-12-23T09:13:17.968Z,939.27
2022-12-23T09:14:13.554Z,939.25
2022-12-23T09:15:12.542Z,939.72
2022-12-23T09:16:12.532Z,939.92
2022-12-23T09:17:12.491Z,941.04
2022-12-23T09:18:12.496Z,941.66
2022-12-23T09:19:12.468Z,942.80
2022-12-23T09:20:12.473Z,944.02
2022-12-23T09:21:12.476Z,943.92
2022-12-23T09:22:12.441Z,944.33
2022-12-23T09:23:12.424Z,944.87
2022-12-23T09:24:12.434Z,945.02
2022-12-23T09:25:12.441Z,945.11
2022-12-23T09:26:12.710Z,944.63
2022-12-23T09:27:12.385Z,944.82
2022-12-23T09:28:12.383Z,944.80
2022-12-23T09:29:12.345Z,944.43
2022-12-23T09:30:12.385Z,943.52
2022-12-23T09:31:12.427Z,943.17
2022-12-23T09:32:12.330Z,944.10
2022-12-23T09:33:12.320Z,945.13
2022-12-23T09:34:12.318Z,945.65
2022-12-23T09:35:12.314Z,945.96
2022-12-23T09:36:12.274Z,944.66
2022-12-23T09:37:12.266Z,944.20
2022-12-23T09:38:12.275Z,943.29
2022-12-23T09:39:12.265Z,942.67
2022-12-23T09:40:12.224Z,942.13
2022-12-23T09:41:12.233Z,942.00
2022-12-23T09:42:12.204Z,942.51
2022-12-23T09:43:12.198Z,942.78
2022-12-23T09:44:12.253Z,942.46
2022-12-23T09:45:12.205Z,942.12
2022-12-23T09:46:12.205Z,941.00
2022-12-23T09:47:12.155Z,939.98
2022-12-23T09:48:12.171Z,938.69
2022-12-23T09:49:12.129Z,937.98
2022-12-23T09:50:12.131Z,937.83
2022-12-23T09:51:12.105Z,938.18
2022-12-23T09:52:12.116Z,938.60
2022-12-23T09:53:12.097Z,938.97
2022-12-23T09:54:16.536Z,939.35
2022-12-23T09:55:13.083Z,939.80
2022-12-23T09:56:12.060Z,940.20
2022-12-23T09:57:12.073Z,940.83
2022-12-23T09:58:12.295Z,941.33
2022-12-23T09:59:12.027Z,941.94
2022-12-23T10:00:11.997Z,942.23
2022-12-23T10:01:11.999Z,941.32
2022-12-23T10:02:13.853Z,941.87
2022-12-23T10:03:12.204Z,942.18
2022-12-23T10:04:12.039Z,943.09
2022-12-23T10:05:11.982Z,944.11
2022-12-23T10:06:12.908Z,945.61
2022-12-23T10:07:11.945Z,947.12
2022-12-23T10:08:11.950Z,948.74
2022-12-23T10:09:11.918Z,949.93
2022-12-23T10:10:11.938Z,951.82
2022-12-23T10:11:11.891Z,951.83
2022-12-23T10:12:11.879Z,950.15
2022-12-23T10:13:11.888Z,948.18
2022-12-23T10:14:11.849Z,946.64
2022-12-23T10:15:11.850Z,946.58
2022-12-23T10:16:11.866Z,946.89
2022-12-23T10:17:11.819Z,946.73
2022-12-23T10:18:11.828Z,947.02
2022-12-23T10:19:11.838Z,946.79
2022-12-23T10:20:11.862Z,946.60
2022-12-23T10:21:11.775Z,946.73
2022-12-23T10:22:11.770Z,947.17
2022-12-23T10:23:11.747Z,947.35
2022-12-23T10:24:11.747Z,948.09
2022-12-23T10:25:11.734Z,949.21
2022-12-23T10:26:11.718Z,950.72
2022-12-23T10:27:11.702Z,951.54
2022-12-23T10:28:11.728Z,951.82
2022-12-23T10:29:16.836Z,951.16
2022-12-23T10:30:34.291Z,949.49
2022-12-23T10:31:41.732Z,947.61
2022-12-23T10:32:12.711Z,944.96
2022-12-23T10:33:11.652Z,942.30
2022-12-23T10:34:11.647Z,939.59
2022-12-23T10:35:11.631Z,936.77
2022-12-23T10:36:11.667Z,934.43
2022-12-23T10:37:11.697Z,933.82
2022-12-23T10:38:11.637Z,934.28
2022-12-23T10:39:11.589Z,935.79
2022-12-23T10:40:11.563Z,935.31
2022-12-23T10:41:11.555Z,934.56
2022-12-23T10:42:11.533Z,934.13
2022-12-23T10:43:11.553Z,934.67
2022-12-23T10:44:11.791Z,934.56
2022-12-23T10:45:11.577Z,933.91
2022-12-23T10:46:11.511Z,935.16
2022-12-23T10:47:11.681Z,935.68
2022-12-23T10:48:14.212Z,935.29
2022-12-23T10:49:11.462Z,933.77
2022-12-23T10:50:11.725Z,932.49
2022-12-23T10:51:11.758Z,932.14
2022-12-23T10:52:11.484Z,932.20
2022-12-23T10:53:11.412Z,932.04
2022-12-23T10:54:11.429Z,930.61
2022-12-23T10:55:11.404Z,929.39
2022-12-23T10:56:11.377Z,928.61
2022-12-23T10:57:11.380Z,926.52
2022-12-23T10:58:11.367Z,925.10
2022-12-23T10:59:11.344Z,923.26
2022-12-23T11:00:11.339Z,921.51
2022-12-23T11:01:16.409Z,919.63
2022-12-23T11:02:13.511Z,918.43
2022-12-23T11:03:11.398Z,917.93
2022-12-23T11:04:11.323Z,917.58
2022-12-23T11:05:11.297Z,918.33
2022-12-23T11:06:11.266Z,918.37
2022-12-23T11:07:42.664Z,917.94
2022-12-23T11:08:12.284Z,918.48
2022-12-23T11:09:11.238Z,917.39
2022-12-23T11:10:11.995Z,915.38
2022-12-23T11:11:11.225Z,913.43
2022-12-23T11:12:11.197Z,912.03
2022-12-23T11:13:11.243Z,911.08
2022-12-23T11:14:11.198Z,910.39
2022-12-23T11:15:11.169Z,909.90
2022-12-23T11:16:11.244Z,909.62
2022-12-23T11:17:11.137Z,910.16
2022-12-23T11:18:11.131Z,909.49
2022-12-23T11:19:11.120Z,909.09
2022-12-23T11:20:11.115Z,908.71
2022-12-23T11:21:11.098Z,908.22
2022-12-23T11:22:11.096Z,907.36
2022-12-23T11:23:11.077Z,906.94
2022-12-23T11:24:11.079Z,906.48
2022-12-23T11:25:11.086Z,907.08
2022-12-23T11:26:11.048Z,907.30
2022-12-23T11:27:11.018Z,907.63
2022-12-23T11:28:11.287Z,907.68
2022-12-23T11:29:11.008Z,907.74
2022-12-23T11:30:11.019Z,909.15
2022-12-23T11:31:11.062Z,910.42
2022-12-23T11:32:11.039Z,912.19
2022-12-23T11:33:10.962Z,913.36
2022-12-23T11:34:10.939Z,914.72
2022-12-23T11:35:11.000Z,915.83
2022-12-23T11:36:10.929Z,916.55
2022-12-23T11:37:10.908Z,916.32
2022-12-23T11:38:10.907Z,916.32
2022-12-23T11:39:10.948Z,917.66
2022-12-23T11:40:10.896Z,920.73
2022-12-23T11:41:10.869Z,924.20
2022-12-23T11:42:10.871Z,927.80
2022-12-23T11:43:10.841Z,930.56
2022-12-23T11:44:10.840Z,933.13
2022-12-23T11:45:10.840Z,934.34
2022-12-23T11:46:10.859Z,936.07
2022-12-23T11:47:10.802Z,939.97
2022-12-23T11:48:10.789Z,943.38
2022-12-23T11:49:10.783Z,940.94
2022-12-23T11:50:10.790Z,935.40
2022-12-23T11:51:10.761Z,929.93
2022-12-23T11:52:10.745Z,926.24
2022-12-23T11:53:10.741Z,924.99
2022-12-23T11:54:10.732Z,925.04
2022-12-23T11:55:10.721Z,925.73
2022-12-23T11:56:10.694Z,925.38
2022-12-23T11:57:10.734Z,925.32
2022-12-23T11:58:10.674Z,924.91
2022-12-23T11:59:10.680Z,924.91
2022-12-23T12:00:10.657Z,924.72
2022-12-23T12:01:10.633Z,924.58
2022-12-23T12:02:10.655Z,925.61
2022-12-23T12:03:10.670Z,925.92
2022-12-23T12:04:10.615Z,925.41
2022-12-23T12:05:10.594Z,925.07
2022-12-23T12:06:10.586Z,925.19
2022-12-23T12:07:10.563Z,924.77
2022-12-23T12:08:10.565Z,924.41
2022-12-23T12:09:10.558Z,921.81
2022-12-23T12:10:10.557Z,919.75
2022-12-23T12:11:10.535Z,918.82
2022-12-23T12:12:10.539Z,918.89
2022-12-23T12:13:10.515Z,920.26
2022-12-23T12:14:10.505Z,923.04
2022-12-23T12:15:10.487Z,926.81
2022-12-23T12:16:10.486Z,930.55
2022-12-23T12:17:10.573Z,932.16
2022-12-23T12:18:10.469Z,933.27
2022-12-23T12:19:10.447Z,934.21
2022-12-23T12:20:10.494Z,934.19
2022-12-23T12:21:10.409Z,932.57
2022-12-23T12:22:10.392Z,930.53
2022-12-23T12:23:10.400Z,927.78
2022-12-23T12:24:19.194Z,925.35
2022-12-23T12:25:11.380Z,923.55
2022-12-23T12:26:10.346Z,922.28
2022-12-23T12:27:10.353Z,923.91
2022-12-23T12:28:10.328Z,926.85
2022-12-23T12:29:10.350Z,927.81